createdAt,value
2018-05-04T00:01:49.697Z,53.20
2018-05-04T00:04:52.915Z,53.60
2018-05-04T00:07:55.358Z,53.60
2018-05-04T00:10:57.810Z,53.30
2018-05-04T00:14:00.258Z,53.00
2018-05-04T00:17:02.700Z,53.10
2018-05-04T00:20:05.926Z,53.00
2018-05-04T00:23:08.370Z,53.00
2018-05-04T00:26:11.570Z,53.60
2018-05-04T00:29:14.013Z,53.50
2018-05-04T00:32:16.465Z,53.80
2018-05-04T00:35:18.906Z,53.70
2018-05-04T00:38:22.117Z,53.80
2018-05-04T00:41:24.553Z,53.90
2018-05-04T00:44:27.006Z,53.50
2018-05-04T00:47:29.447Z,53.90
2018-05-04T00:50:31.894Z,53.50
2018-05-04T00:53:47.165Z,53.40
2018-05-04T00:56:50.382Z,54.10
2018-05-04T00:59:52.825Z,53.70
2018-05-04T01:02:55.274Z,53.40
2018-05-04T01:05:57.718Z,53.80
2018-05-04T01:09:00.166Z,53.40
2018-05-04T01:12:02.620Z,55.00
2018-05-04T01:15:05.057Z,54.00
2018-05-04T01:18:07.508Z,53.80
2018-05-04T01:21:10.719Z,54.10
2018-05-04T01:24:13.162Z,54.10
2018-05-04T01:27:15.601Z,54.40
2018-05-04T01:30:18.050Z,54.90
2018-05-04T01:33:20.500Z,54.60
2018-05-04T01:36:23.720Z,55.40
2018-05-04T01:39:26.188Z,55.40
2018-05-04T01:42:29.387Z,55.50
2018-05-04T01:45:31.834Z,55.40
2018-05-04T01:48:34.279Z,55.50
2018-05-04T01:51:36.715Z,55.60
2018-05-04T01:54:39.167Z,55.80
2018-05-04T01:57:42.370Z,56.10
2018-05-04T02:00:45.580Z,55.40
2018-05-04T02:03:48.025Z,55.40
2018-05-04T02:06:50.465Z,55.30
2018-05-04T02:09:52.919Z,55.10
2018-05-04T02:12:55.371Z,55.10
2018-05-04T02:15:58.594Z,54.80
2018-05-04T02:19:01.037Z,54.80
2018-05-04T02:22:03.471Z,54.80
2018-05-04T02:25:05.919Z,55.00
2018-05-04T02:28:08.359Z,55.60
2018-05-04T02:31:11.570Z,55.90
2018-05-04T02:34:14.022Z,55.90
2018-05-04T02:37:16.486Z,56.10
2018-05-04T02:40:18.923Z,55.40
2018-05-04T02:43:21.358Z,56.30
2018-05-04T02:46:24.574Z,56.20
2018-05-04T02:49:27.024Z,56.10
2018-05-04T02:52:29.464Z,56.30
2018-05-04T02:55:32.750Z,56.10
2018-05-04T02:58:35.106Z,56.10
2018-05-04T03:01:37.553Z,56.10
2018-05-04T03:04:40.006Z,55.70
2018-05-04T03:07:42.441Z,55.80
2018-05-04T03:10:44.885Z,55.90
2018-05-04T03:13:48.100Z,55.60
2018-05-04T03:16:50.546Z,55.50
2018-05-04T03:19:52.989Z,55.90
2018-05-04T03:22:55.430Z,56.20
2018-05-04T03:25:57.886Z,56.30
2018-05-04T03:29:01.090Z,56.60
2018-05-04T03:32:04.338Z,56.60
2018-05-04T03:35:06.785Z,55.90
2018-05-04T03:38:09.225Z,57.10
2018-05-04T03:41:12.443Z,55.90
2018-05-04T03:44:14.886Z,55.90
2018-05-04T03:47:17.331Z,56.20
2018-05-04T03:50:19.781Z,56.60
2018-05-04T03:53:22.222Z,56.50
2018-05-04T03:56:26.176Z,56.60
2018-05-04T03:59:40.369Z,56.50
2018-05-04T04:02:54.726Z,56.40
2018-05-04T04:05:57.184Z,56.30
2018-05-04T04:08:59.623Z,56.30
2018-05-04T04:12:02.076Z,56.80
2018-05-04T04:15:05.295Z,55.90
2018-05-04T04:18:07.731Z,55.80
2018-05-04T04:21:10.177Z,55.90
2018-05-04T04:24:12.609Z,56.10
2018-05-04T04:27:15.058Z,56.10
2018-05-04T04:30:17.510Z,55.90
2018-05-04T04:33:19.946Z,56.30
2018-05-04T04:36:22.389Z,56.30
2018-05-04T04:39:24.833Z,56.30
2018-05-04T04:42:27.333Z,56.30
2018-05-04T04:45:29.796Z,56.10
2018-05-04T04:48:32.217Z,55.80
2018-05-04T04:51:34.741Z,55.40
2018-05-04T04:54:37.118Z,55.20
2018-05-04T04:57:39.565Z,55.40
2018-05-04T05:00:42.019Z,54.10
2018-05-04T05:03:45.223Z,54.10
2018-05-04T05:06:47.669Z,54.10
2018-05-04T05:09:50.111Z,53.40
2018-05-04T05:12:52.571Z,53.30
2018-05-04T05:15:55.018Z,52.60
2018-05-04T05:18:58.230Z,52.00
2018-05-04T05:22:00.754Z,52.00
2018-05-04T05:25:03.905Z,50.70
2018-05-04T05:28:06.358Z,50.60
2018-05-04T05:31:09.589Z,45.40
2018-05-04T05:34:12.024Z,45.40
2018-05-04T05:37:15.246Z,36.60
2018-05-04T05:40:17.693Z,36.50
2018-05-04T05:43:20.916Z,30.50
2018-05-04T05:46:23.357Z,30.50
2018-05-04T05:49:25.811Z,30.00
2018-05-04T05:52:28.275Z,28.70
2018-05-04T05:55:30.694Z,27.90
2018-05-04T05:58:33.910Z,27.70
2018-05-04T06:01:36.358Z,27.00
2018-05-04T06:04:39.561Z,26.80
2018-05-04T06:07:42.775Z,25.80
2018-05-04T06:10:45.214Z,25.80
2018-05-04T06:13:47.661Z,27.50
2018-05-04T06:16:50.134Z,28.60
2018-05-04T06:19:52.583Z,28.40
2018-05-04T06:22:55.030Z,28.30
2018-05-04T06:25:58.250Z,27.80
2018-05-04T06:29:00.705Z,27.70
2018-05-04T06:32:10.706Z,27.20
2018-05-04T06:35:13.165Z,27.20
2018-05-04T06:38:15.616Z,27.40
2018-05-04T06:41:22.490Z,28.00
2018-05-04T06:44:25.710Z,28.90
2018-05-04T06:47:28.149Z,28.90
2018-05-04T06:50:30.609Z,27.90
2018-05-04T06:53:33.070Z,28.70
2018-05-04T06:56:35.513Z,30.30
2018-05-04T06:59:37.973Z,31.50
2018-05-04T07:02:40.418Z,30.70
2018-05-04T07:05:42.881Z,30.70
2018-05-04T07:08:45.610Z,29.00
2018-05-04T07:11:48.815Z,26.80
2018-05-04T07:14:51.350Z,26.80
2018-05-04T07:17:54.473Z,29.80
2018-05-04T07:20:57.702Z,29.20
2018-05-04T07:24:00.166Z,29.20
2018-05-04T07:27:02.601Z,29.90
2018-05-04T07:30:05.062Z,30.60
2018-05-04T07:33:07.519Z,32.70
2018-05-04T07:36:09.969Z,30.80
2018-05-04T07:39:12.421Z,31.80
2018-05-04T07:42:14.862Z,32.00
2018-05-04T07:45:17.318Z,32.30
2018-05-04T07:48:19.761Z,32.40
2018-05-04T07:51:22.214Z,32.30
2018-05-04T07:54:24.675Z,31.90
2018-05-04T07:57:27.114Z,32.70
2018-05-04T08:00:32.614Z,32.40
2018-05-04T08:03:35.063Z,30.00
2018-05-04T08:06:37.518Z,30.40
2018-05-04T08:09:39.970Z,31.40
2018-05-04T08:12:42.413Z,31.00
2018-05-04T08:15:44.869Z,31.50
2018-05-04T08:18:47.313Z,31.50
2018-05-04T08:21:49.774Z,33.60
2018-05-04T08:24:52.226Z,35.20
2018-05-04T08:27:54.675Z,35.10
2018-05-04T08:30:57.125Z,35.20
2018-05-04T08:33:59.569Z,35.20
2018-05-04T08:37:02.839Z,33.30
2018-05-04T08:40:05.264Z,33.20
2018-05-04T08:43:07.793Z,33.10
2018-05-04T08:46:10.934Z,32.70
2018-05-04T08:49:13.374Z,32.70
2018-05-04T08:52:15.825Z,30.30
2018-05-04T08:55:18.290Z,30.40
2018-05-04T08:58:20.731Z,30.10
2018-05-04T09:01:23.189Z,30.20
2018-05-04T09:04:25.633Z,31.00
2018-05-04T09:07:28.141Z,29.90
2018-05-04T09:10:30.559Z,29.70
2018-05-04T09:13:32.998Z,30.10
2018-05-04T09:16:35.453Z,30.10
2018-05-04T09:19:37.900Z,30.50
2018-05-04T09:22:40.354Z,30.40
2018-05-04T09:25:42.805Z,32.70
2018-05-04T09:28:46.543Z,31.50
2018-05-04T09:31:49.033Z,31.40
2018-05-04T09:34:51.484Z,33.30
2018-05-04T09:37:53.941Z,33.50
2018-05-04T09:40:57.165Z,34.10
2018-05-04T09:43:59.610Z,34.00
2018-05-04T09:47:02.840Z,34.60
2018-05-04T09:50:05.299Z,34.50
2018-05-04T09:53:07.751Z,34.50
2018-05-04T09:56:22.686Z,36.90
2018-05-04T09:59:25.137Z,36.80
2018-05-04T10:02:27.607Z,36.50
2018-05-04T10:05:30.064Z,37.10
2018-05-04T10:08:33.293Z,34.50
2018-05-04T10:11:35.749Z,34.40
2018-05-04T10:14:38.195Z,34.80
2018-05-04T10:17:40.653Z,37.10
2018-05-04T10:20:43.097Z,36.20
2018-05-04T10:23:45.558Z,36.70
2018-05-04T10:26:48.083Z,36.10
2018-05-04T10:29:50.466Z,36.70
2018-05-04T10:32:52.931Z,36.60
2018-05-04T10:35:55.382Z,37.00
2018-05-04T10:38:57.944Z,36.20
2018-05-04T10:42:00.286Z,35.90
2018-05-04T10:45:03.514Z,38.10
2018-05-04T10:48:05.961Z,37.40
2018-05-04T10:51:09.179Z,40.00
2018-05-04T10:54:11.638Z,40.00
2018-05-04T10:57:14.913Z,40.20
2018-05-04T11:00:17.306Z,40.20
2018-05-04T11:03:20.532Z,38.20
2018-05-04T11:06:22.969Z,38.10
2018-05-04T11:09:25.432Z,36.80
2018-05-04T11:12:27.879Z,37.90
2018-05-04T11:15:30.315Z,38.00
2018-05-04T11:18:32.777Z,38.00
2018-05-04T11:21:35.214Z,39.60
2018-05-04T11:24:37.666Z,38.50
2018-05-04T11:27:40.128Z,39.80
2018-05-04T11:30:42.569Z,40.70
2018-05-04T11:33:45.022Z,39.50
2018-05-04T11:36:47.473Z,40.60
2018-05-04T11:39:49.942Z,40.10
2018-05-04T11:42:53.301Z,38.70
2018-05-04T11:45:55.749Z,39.30
2018-05-04T11:48:58.214Z,40.80
2018-05-04T11:52:00.667Z,40.00
2018-05-04T11:55:03.125Z,39.00
2018-05-04T11:58:06.346Z,38.90
2018-05-04T12:01:08.791Z,38.90
2018-05-04T12:04:12.010Z,40.70
2018-05-04T12:07:14.453Z,40.60
2018-05-04T12:10:16.917Z,40.00
2018-05-04T12:13:19.379Z,38.60
2018-05-04T12:16:21.829Z,38.40
2018-05-04T12:19:24.274Z,39.20
2018-05-04T12:22:27.492Z,38.10
2018-05-04T12:25:29.946Z,38.10
2018-05-04T12:28:33.171Z,37.80
2018-05-04T12:31:35.614Z,37.90
2018-05-04T12:34:38.837Z,38.60
2018-05-04T12:37:41.283Z,38.60
2018-05-04T12:40:44.509Z,40.40
2018-05-04T12:43:46.974Z,40.30
2018-05-04T12:46:49.419Z,40.70
2018-05-04T12:49:52.642Z,40.40
2018-05-04T12:52:55.093Z,40.40
2018-05-04T12:55:58.309Z,39.90
2018-05-04T12:59:00.769Z,39.80
2018-05-04T13:02:03.979Z,40.00
2018-05-04T13:05:06.437Z,40.00
2018-05-04T13:08:09.649Z,39.80
2018-05-04T13:11:12.101Z,39.80
2018-05-04T13:14:15.326Z,40.70
2018-05-04T13:17:17.774Z,40.20
2018-05-04T13:20:20.230Z,40.20
2018-05-04T13:23:22.747Z,39.10
2018-05-04T13:26:25.131Z,40.50
2018-05-04T13:29:27.585Z,40.70
2018-05-04T13:32:30.808Z,41.80
2018-05-04T13:35:33.264Z,41.10
2018-05-04T13:38:35.747Z,39.50
2018-05-04T13:41:38.939Z,39.90
2018-05-04T13:44:42.246Z,40.90
2018-05-04T13:47:44.594Z,40.80
2018-05-04T13:50:47.082Z,41.50
2018-05-04T13:53:49.509Z,40.40
2018-05-04T13:56:51.954Z,39.70
2018-05-04T13:59:54.413Z,40.90
2018-05-04T14:02:56.861Z,41.90
2018-05-04T14:05:59.317Z,40.10
2018-05-04T14:09:01.767Z,39.90
2018-05-04T14:12:04.213Z,40.20
2018-05-04T14:15:07.433Z,40.60
2018-05-04T14:18:09.878Z,40.50
2018-05-04T14:21:13.103Z,41.10
2018-05-04T14:24:15.557Z,41.10
2018-05-04T14:27:18.877Z,40.20
2018-05-04T14:30:21.225Z,40.20
2018-05-04T14:37:04.957Z,41.20
2018-05-04T14:40:07.410Z,39.30
2018-05-04T14:43:09.850Z,39.70
2018-05-04T14:46:12.310Z,39.90
2018-05-04T14:49:14.760Z,40.00
2018-05-04T14:52:17.221Z,40.80
2018-05-04T14:55:19.681Z,40.00
2018-05-04T14:58:22.130Z,40.70
2018-05-04T15:01:25.366Z,40.40
2018-05-04T15:04:27.818Z,40.40
2018-05-04T15:07:30.282Z,41.40
2018-05-04T15:10:32.737Z,41.20
2018-05-04T15:13:35.182Z,41.00
2018-05-04T15:16:37.646Z,41.40
2018-05-04T15:19:40.092Z,41.50
2018-05-04T15:22:42.546Z,41.60
2018-05-04T15:25:45.009Z,41.40
2018-05-04T15:28:59.633Z,41.40
2018-05-04T15:32:02.094Z,40.50
2018-05-04T15:35:04.549Z,41.00
2018-05-04T15:38:07.762Z,41.70
2018-05-04T15:41:15.889Z,41.60
2018-05-04T15:44:18.344Z,41.80
2018-05-04T15:47:20.802Z,41.60
2018-05-04T15:50:29.764Z,41.80
2018-05-04T15:53:32.216Z,41.80
2018-05-04T15:56:35.442Z,42.10
2018-05-04T15:59:37.892Z,42.00
2018-05-04T16:02:40.341Z,42.00
2018-05-04T16:05:42.798Z,42.10
2018-05-04T16:08:45.243Z,42.10
2018-05-04T16:11:47.707Z,42.00
2018-05-04T16:14:50.169Z,41.80
2018-05-04T16:17:52.625Z,42.20
2018-05-04T16:20:55.094Z,42.60
2018-05-04T16:23:57.542Z,42.80
2018-05-04T16:26:59.998Z,42.50
2018-05-04T16:30:02.437Z,42.40
2018-05-04T16:33:05.655Z,42.40
2018-05-04T16:36:08.118Z,42.40
2018-05-04T16:39:11.317Z,42.60
2018-05-04T16:42:13.781Z,42.60
2018-05-04T16:45:16.985Z,43.20
2018-05-04T16:48:25.858Z,42.50
2018-05-04T16:51:28.325Z,42.50
2018-05-04T16:54:30.768Z,43.30
2018-05-04T16:57:33.222Z,42.60
2018-05-04T17:00:35.670Z,43.00
2018-05-04T17:03:38.130Z,43.00
2018-05-04T17:06:40.582Z,42.90
2018-05-04T17:09:43.030Z,43.30
2018-05-04T17:12:45.478Z,43.30
2018-05-04T17:15:48.727Z,43.50
2018-05-04T17:18:51.146Z,43.40
2018-05-04T17:21:53.602Z,43.40
2018-05-04T17:24:56.050Z,42.50
2018-05-04T17:27:58.505Z,43.10
2018-05-04T17:31:00.953Z,42.60
2018-05-04T17:34:03.456Z,42.60
2018-05-04T17:37:05.867Z,43.00
2018-05-04T17:40:08.321Z,42.90
2018-05-04T17:43:10.761Z,43.60
2018-05-04T17:46:13.966Z,44.40
2018-05-04T17:49:16.417Z,44.40
2018-05-04T17:52:18.881Z,44.30
2018-05-04T17:55:21.320Z,44.50
2018-05-04T17:58:23.770Z,44.60
2018-05-04T18:01:26.217Z,44.60
2018-05-04T18:04:28.682Z,44.80
2018-05-04T18:07:31.154Z,43.80
2018-05-04T18:10:33.593Z,43.90
2018-05-04T18:13:36.041Z,43.40
2018-05-04T18:16:38.502Z,44.00
2018-05-04T18:19:40.953Z,44.20
2018-05-04T18:22:43.412Z,44.20
2018-05-04T18:25:46.618Z,44.30
2018-05-04T18:28:49.074Z,44.30
2018-05-04T18:31:52.300Z,45.00
2018-05-04T18:34:54.737Z,44.90
2018-05-04T18:37:57.241Z,45.30
2018-05-04T18:41:00.450Z,46.00
2018-05-04T18:44:02.906Z,45.90
2018-05-04T18:47:06.130Z,46.90
2018-05-04T18:50:08.581Z,46.90
2018-05-04T18:53:11.033Z,46.90
2018-05-04T18:56:13.477Z,46.90
2018-05-04T18:59:15.933Z,47.10
2018-05-04T19:02:24.061Z,47.50
2018-05-04T19:05:26.506Z,47.60
2018-05-04T19:08:28.962Z,47.90
2018-05-04T19:11:32.170Z,48.50
2018-05-04T19:14:34.650Z,48.50
2018-05-04T19:17:37.849Z,48.90
2018-05-04T19:20:40.331Z,48.90
2018-05-04T19:23:42.745Z,49.20
2018-05-04T19:26:45.193Z,49.30
2018-05-04T19:29:47.655Z,49.40
2018-05-04T19:32:50.110Z,49.70
2018-05-04T19:35:52.565Z,49.90
2018-05-04T19:38:55.024Z,50.00
2018-05-04T19:41:57.471Z,50.20
2018-05-04T19:44:59.935Z,50.20
2018-05-04T19:48:02.389Z,50.30
2018-05-04T19:51:05.600Z,50.10
2018-05-04T19:54:08.057Z,50.10
2018-05-04T19:57:10.499Z,50.20
2018-05-04T20:00:12.950Z,50.10
2018-05-04T20:03:15.413Z,50.00
2018-05-04T20:06:17.862Z,50.20
2018-05-04T20:09:21.082Z,50.60
2018-05-04T20:12:23.526Z,50.40
2018-05-04T20:15:25.983Z,50.50
2018-05-04T20:18:28.435Z,50.60
2018-05-04T20:21:30.887Z,50.80
2018-05-04T20:24:33.346Z,51.00
2018-05-04T20:27:36.559Z,51.20
2018-05-04T20:30:39.018Z,51.10
2018-05-04T20:33:41.478Z,51.00
2018-05-04T20:36:43.921Z,51.00
2018-05-04T20:39:46.382Z,50.70
2018-05-04T20:42:48.821Z,50.80
2018-05-04T20:45:52.046Z,51.00
2018-05-04T20:48:54.494Z,51.00
2018-05-04T20:51:57.750Z,51.80
2018-05-04T20:55:00.165Z,51.80
2018-05-04T20:58:03.378Z,52.60
2018-05-04T21:01:05.846Z,52.60
2018-05-04T21:04:08.374Z,52.80
2018-05-04T21:07:18.096Z,52.90
2018-05-04T21:10:37.366Z,52.70
2018-05-04T21:13:44.906Z,52.60
2018-05-04T21:16:50.873Z,53.00
2018-05-04T21:23:33.278Z,51.10
2018-05-04T21:26:52.621Z,51.00
2018-05-04T21:30:05.580Z,50.90
2018-05-04T21:33:14.383Z,51.00
2018-05-04T21:36:16.846Z,51.00
2018-05-04T21:39:19.293Z,50.80
2018-05-04T21:42:22.523Z,50.90
2018-05-04T21:45:28.871Z,50.90
2018-05-04T21:48:32.077Z,51.40
2018-05-04T21:51:35.429Z,51.40
2018-05-04T21:54:37.898Z,51.60
2018-05-04T21:57:40.353Z,51.60
2018-05-04T22:00:42.794Z,51.70
2018-05-04T22:03:45.234Z,51.80
2018-05-04T22:07:01.578Z,52.00
2018-05-04T22:10:04.039Z,52.30
2018-05-04T22:13:07.241Z,52.80
2018-05-04T22:16:09.691Z,52.90
2018-05-04T22:19:12.906Z,53.80
2018-05-04T22:22:15.353Z,53.70
2018-05-04T22:25:24.760Z,54.00
2018-05-04T22:32:00.569Z,54.70
2018-05-04T22:35:14.178Z,55.00
2018-05-04T22:38:16.631Z,55.40
2018-05-04T22:41:19.082Z,55.80
2018-05-04T22:44:21.521Z,56.30
2018-05-04T22:47:23.974Z,56.40
2018-05-04T22:50:26.413Z,56.80
2018-05-04T22:53:28.866Z,57.20
2018-05-04T22:56:31.381Z,58.20
2018-05-04T22:59:33.761Z,58.20
2018-05-04T23:02:36.205Z,58.30
2018-05-04T23:05:39.423Z,58.80
2018-05-04T23:08:41.881Z,58.80
2018-05-04T23:11:45.103Z,58.30
2018-05-04T23:14:47.539Z,58.40
2018-05-04T23:17:49.986Z,57.90
2018-05-04T23:20:52.478Z,57.90
2018-05-04T23:23:54.881Z,57.70
2018-05-04T23:26:58.113Z,57.90
2018-05-04T23:30:00.557Z,57.90
2018-05-04T23:33:03.785Z,57.80
2018-05-04T23:36:06.222Z,57.70
2018-05-04T23:39:09.445Z,58.40
2018-05-04T23:42:11.901Z,58.40
2018-05-04T23:45:14.349Z,58.40
2018-05-04T23:48:16.793Z,58.20
2018-05-04T23:51:19.241Z,58.60
2018-05-04T23:54:21.682Z,58.90
2018-05-04T23:57:24.128Z,58.90
